sensor_id;sensor_type;location;lat;lon;timestamp;pressure;altitude;pressure_sealevel;temperature;humidity
6435;BME280;3250;42.694;23.278;2023-12-28T00:00:39;95904.72;;;5.03;80.49
6435;BME280;3250;42.694;23.278;2023-12-28T00:03:05;95888.50;;;4.91;81.82
6435;BME280;3250;42.694;23.278;2023-12-28T00:05:30;95910.59;;;5.23;82.67
6435;BME280;3250;42.694;23.278;2023-12-28T00:07:56;95915.06;;;5.30;82.23
6435;BME280;3250;42.694;23.278;2023-12-28T00:10:26;95912.78;;;5.53;81.55
6435;BME280;3250;42.694;23.278;2023-12-28T00:12:53;95923.38;;;5.52;81.55
6435;BME280;3250;42.694;23.278;2023-12-28T00:15:18;95919.28;;;5.49;79.24
6435;BME280;3250;42.694;23.278;2023-12-28T00:17:44;95926.19;;;5.32;78.29
6435;BME280;3250;42.694;23.278;2023-12-28T00:20:10;95926.22;;;5.15;78.46
6435;BME280;3250;42.694;23.278;2023-12-28T00:22:35;95925.53;;;5.13;78.83
6435;BME280;3250;42.694;23.278;2023-12-28T00:25:06;95920.78;;;5.08;79.78
6435;BME280;3250;42.694;23.278;2023-12-28T00:27:31;95904.25;;;4.82;80.15
6435;BME280;3250;42.694;23.278;2023-12-28T00:29:59;95931.56;;;4.96;79.98
6435;BME280;3250;42.694;23.278;2023-12-28T00:32:25;95936.59;;;4.89;79.20
6435;BME280;3250;42.694;23.278;2023-12-28T00:34:50;95935.22;;;4.85;79.62
6435;BME280;3250;42.694;23.278;2023-12-28T00:37:16;95940.44;;;4.67;80.79
6435;BME280;3250;42.694;23.278;2023-12-28T00:39:41;95934.56;;;4.65;80.66
6435;BME280;3250;42.694;23.278;2023-12-28T00:42:07;95936.78;;;4.60;80.48
6435;BME280;3250;42.694;23.278;2023-12-28T00:44:32;95917.13;;;4.48;80.10
6435;BME280;3250;42.694;23.278;2023-12-28T00:46:58;95944.00;;;4.48;80.70
6435;BME280;3250;42.694;23.278;2023-12-28T00:49:23;95949.78;;;4.42;80.24
6435;BME280;3250;42.694;23.278;2023-12-28T00:51:48;95949.03;;;4.32;81.15
6435;BME280;3250;42.694;23.278;2023-12-28T00:54:14;95948.88;;;4.34;81.05
6435;BME280;3250;42.694;23.278;2023-12-28T00:56:39;95949.53;;;4.36;81.56
6435;BME280;3250;42.694;23.278;2023-12-28T00:59:05;95927.41;;;4.22;81.90
6435;BME280;3250;42.694;23.278;2023-12-28T01:01:30;95912.09;;;4.09;82.00
6435;BME280;3250;42.694;23.278;2023-12-28T01:03:56;95937.34;;;4.36;81.27
6435;BME280;3250;42.694;23.278;2023-12-28T01:06:22;95940.09;;;4.35;81.81
6435;BME280;3250;42.694;23.278;2023-12-28T01:08:47;95960.06;;;4.44;81.46
6435;BME280;3250;42.694;23.278;2023-12-28T01:11:13;95956.69;;;4.34;81.84
6435;BME280;3250;42.694;23.278;2023-12-28T01:13:38;95950.66;;;4.33;82.23
6435;BME280;3250;42.694;23.278;2023-12-28T01:16:04;95953.34;;;4.24;82.27
6435;BME280;3250;42.694;23.278;2023-12-28T01:18:30;95940.56;;;4.21;81.93
6435;BME280;3250;42.694;23.278;2023-12-28T01:20:55;95958.31;;;4.35;81.46
6435;BME280;3250;42.694;23.278;2023-12-28T01:23:20;95947.91;;;4.35;81.67
6435;BME280;3250;42.694;23.278;2023-12-28T01:25:46;95949.50;;;4.45;81.32
6435;BME280;3250;42.694;23.278;2023-12-28T01:28:12;95944.56;;;4.42;81.27
6435;BME280;3250;42.694;23.278;2023-12-28T01:30:37;95952.56;;;4.41;81.58
6435;BME280;3250;42.694;23.278;2023-12-28T01:33:03;95934.50;;;4.30;80.96
6435;BME280;3250;42.694;23.278;2023-12-28T01:35:29;95954.44;;;4.48;80.87
6435;BME280;3250;42.694;23.278;2023-12-28T01:37:55;95951.06;;;4.38;81.60
6435;BME280;3250;42.694;23.278;2023-12-28T01:40:20;95936.69;;;4.25;81.91
6435;BME280;3250;42.694;23.278;2023-12-28T01:42:45;95914.56;;;4.11;81.41
6435;BME280;3250;42.694;23.278;2023-12-28T01:45:11;95943.19;;;4.21;81.39
6435;BME280;3250;42.694;23.278;2023-12-28T01:47:37;95935.78;;;4.16;81.50
6435;BME280;3250;42.694;23.278;2023-12-28T01:50:05;95945.59;;;4.32;81.40
6435;BME280;3250;42.694;23.278;2023-12-28T01:52:31;95942.69;;;4.35;81.10
6435;BME280;3250;42.694;23.278;2023-12-28T01:54:57;95949.81;;;4.33;81.44
6435;BME280;3250;42.694;23.278;2023-12-28T01:57:22;95931.03;;;4.11;82.19
6435;BME280;3250;42.694;23.278;2023-12-28T01:59:48;95937.16;;;4.20;82.40
6435;BME280;3250;42.694;23.278;2023-12-28T02:02:14;95937.56;;;4.15;82.16
6435;BME280;3250;42.694;23.278;2023-12-28T02:04:40;95936.91;;;4.13;82.56
6435;BME280;3250;42.694;23.278;2023-12-28T02:07:05;95939.75;;;4.20;82.72
6435;BME280;3250;42.694;23.278;2023-12-28T02:09:31;95943.97;;;4.31;81.83
6435;BME280;3250;42.694;23.278;2023-12-28T02:11:57;95947.53;;;4.30;82.29
6435;BME280;3250;42.694;23.278;2023-12-28T02:14:23;95940.41;;;4.32;81.79
6435;BME280;3250;42.694;23.278;2023-12-28T02:17:00;95937.63;;;4.33;82.45
6435;BME280;3250;42.694;23.278;2023-12-28T02:22:01;95940.91;;;4.35;81.94
6435;BME280;3250;42.694;23.278;2023-12-28T02:24:28;95916.44;;;4.18;82.46
6435;BME280;3250;42.694;23.278;2023-12-28T02:26:53;95928.66;;;4.18;83.59
6435;BME280;3250;42.694;23.278;2023-12-28T02:29:18;95936.41;;;4.28;83.27
6435;BME280;3250;42.694;23.278;2023-12-28T02:32:06;95942.81;;;4.33;82.69
6435;BME280;3250;42.694;23.278;2023-12-28T02:34:37;95921.56;;;4.10;82.22
6435;BME280;3250;42.694;23.278;2023-12-28T02:37:04;95942.38;;;4.20;82.25
6435;BME280;3250;42.694;23.278;2023-12-28T02:39:31;95930.88;;;4.13;82.16
6435;BME280;3250;42.694;23.278;2023-12-28T02:41:57;95942.25;;;4.12;82.91
6435;BME280;3250;42.694;23.278;2023-12-28T02:44:23;95935.13;;;4.14;82.65
6435;BME280;3250;42.694;23.278;2023-12-28T02:46:48;95942.31;;;4.02;83.32
6435;BME280;3250;42.694;23.278;2023-12-28T02:49:14;95940.16;;;3.98;84.73
6435;BME280;3250;42.694;23.278;2023-12-28T02:51:41;95928.34;;;3.94;85.71
6435;BME280;3250;42.694;23.278;2023-12-28T02:54:07;95940.84;;;3.90;85.80
6435;BME280;3250;42.694;23.278;2023-12-28T02:56:33;95933.91;;;4.08;85.00
6435;BME280;3250;42.694;23.278;2023-12-28T02:58:59;95935.16;;;4.04;84.06
6435;BME280;3250;42.694;23.278;2023-12-28T03:01:25;95933.25;;;4.06;83.47
6435;BME280;3250;42.694;23.278;2023-12-28T03:03:50;95930.19;;;4.11;83.59
6435;BME280;3250;42.694;23.278;2023-12-28T03:06:16;95899.25;;;3.98;83.54
6435;BME280;3250;42.694;23.278;2023-12-28T03:08:41;95925.00;;;4.11;82.77
6435;BME280;3250;42.694;23.278;2023-12-28T03:11:06;95914.47;;;4.03;82.26
6435;BME280;3250;42.694;23.278;2023-12-28T03:13:32;95912.16;;;4.00;82.77
6435;BME280;3250;42.694;23.278;2023-12-28T03:15:57;95912.59;;;3.95;82.65
6435;BME280;3250;42.694;23.278;2023-12-28T03:18:23;95906.34;;;3.78;82.28
6435;BME280;3250;42.694;23.278;2023-12-28T03:20:48;95878.09;;;3.47;83.16
6435;BME280;3250;42.694;23.278;2023-12-28T03:23:14;95917.31;;;3.72;83.19
6435;BME280;3250;42.694;23.278;2023-12-28T03:25:39;95909.25;;;3.75;83.61
6435;BME280;3250;42.694;23.278;2023-12-28T03:28:05;95913.03;;;3.81;83.83
6435;BME280;3250;42.694;23.278;2023-12-28T03:30:30;95908.50;;;3.83;84.17
6435;BME280;3250;42.694;23.278;2023-12-28T03:32:56;95914.06;;;3.70;83.91
6435;BME280;3250;42.694;23.278;2023-12-28T03:35:21;95933.38;;;3.68;83.24
6435;BME280;3250;42.694;23.278;2023-12-28T03:37:47;95929.47;;;3.54;84.38
6435;BME280;3250;42.694;23.278;2023-12-28T03:40:12;95926.41;;;3.68;83.46
6435;BME280;3250;42.694;23.278;2023-12-28T03:42:38;95926.97;;;3.62;84.18
6435;BME280;3250;42.694;23.278;2023-12-28T03:45:04;95931.75;;;3.67;84.03
6435;BME280;3250;42.694;23.278;2023-12-28T03:47:29;95938.00;;;3.74;84.04
6435;BME280;3250;42.694;23.278;2023-12-28T03:49:55;95940.94;;;3.61;84.49
6435;BME280;3250;42.694;23.278;2023-12-28T03:52:22;95938.88;;;3.65;84.49
6435;BME280;3250;42.694;23.278;2023-12-28T03:54:48;95948.63;;;3.63;83.80
6435;BME280;3250;42.694;23.278;2023-12-28T03:57:14;95907.59;;;3.28;83.39
6435;BME280;3250;42.694;23.278;2023-12-28T03:59:39;95942.50;;;3.45;83.89
6435;BME280;3250;42.694;23.278;2023-12-28T04:02:05;95947.69;;;3.45;84.04
6435;BME280;3250;42.694;23.278;2023-12-28T04:04:31;95953.44;;;3.48;83.60
6435;BME280;3250;42.694;23.278;2023-12-28T04:06:56;95947.41;;;3.38;83.28
6435;BME280;3250;42.694;23.278;2023-12-28T04:09:22;95948.53;;;3.35;83.63
6435;BME280;3250;42.694;23.278;2023-12-28T04:11:47;95950.84;;;3.38;83.69
6435;BME280;3250;42.694;23.278;2023-12-28T04:14:13;95944.28;;;3.34;84.02
6435;BME280;3250;42.694;23.278;2023-12-28T04:16:38;95952.66;;;3.28;83.90
6435;BME280;3250;42.694;23.278;2023-12-28T04:19:04;95948.81;;;3.32;83.61
6435;BME280;3250;42.694;23.278;2023-12-28T04:21:29;95943.84;;;3.39;83.06
6435;BME280;3250;42.694;23.278;2023-12-28T04:23:55;95953.31;;;3.30;83.21
6435;BME280;3250;42.694;23.278;2023-12-28T04:26:20;95951.00;;;3.37;82.93
6435;BME280;3250;42.694;23.278;2023-12-28T04:28:46;95950.56;;;3.41;82.90
6435;BME280;3250;42.694;23.278;2023-12-28T04:31:11;95946.06;;;3.44;82.40
6435;BME280;3250;42.694;23.278;2023-12-28T04:33:36;95950.72;;;3.30;82.66
6435;BME280;3250;42.694;23.278;2023-12-28T04:36:03;95942.09;;;3.30;82.87
6435;BME280;3250;42.694;23.278;2023-12-28T04:38:29;95943.59;;;3.32;83.59
6435;BME280;3250;42.694;23.278;2023-12-28T04:40:55;95943.63;;;3.13;84.55
6435;BME280;3250;42.694;23.278;2023-12-28T04:43:21;95943.63;;;3.13;85.44
6435;BME280;3250;42.694;23.278;2023-12-28T04:45:49;95936.63;;;3.14;85.40
6435;BME280;3250;42.694;23.278;2023-12-28T04:48:14;95942.66;;;3.14;84.40
6435;BME280;3250;42.694;23.278;2023-12-28T04:50:40;95942.78;;;3.13;83.80
6435;BME280;3250;42.694;23.278;2023-12-28T04:53:05;95929.25;;;3.09;84.17
6435;BME280;3250;42.694;23.278;2023-12-28T04:55:31;95945.38;;;3.22;83.31
6435;BME280;3250;42.694;23.278;2023-12-28T04:57:56;95945.25;;;3.14;83.42
6435;BME280;3250;42.694;23.278;2023-12-28T05:00:21;95939.78;;;3.17;83.06
6435;BME280;3250;42.694;23.278;2023-12-28T05:02:47;95946.22;;;3.13;82.97
6435;BME280;3250;42.694;23.278;2023-12-28T05:05:12;95949.09;;;3.10;82.65
6435;BME280;3250;42.694;23.278;2023-12-28T05:07:38;95947.19;;;2.93;82.81
6435;BME280;3250;42.694;23.278;2023-12-28T05:10:04;95944.44;;;2.94;83.34
6435;BME280;3250;42.694;23.278;2023-12-28T05:12:30;95944.31;;;3.06;83.66
6435;BME280;3250;42.694;23.278;2023-12-28T05:14:55;95951.03;;;3.08;82.58
6435;BME280;3250;42.694;23.278;2023-12-28T05:17:21;95945.81;;;3.08;82.69
6435;BME280;3250;42.694;23.278;2023-12-28T05:19:46;95929.53;;;2.96;83.07
6435;BME280;3250;42.694;23.278;2023-12-28T05:22:12;95928.31;;;3.10;82.53
6435;BME280;3250;42.694;23.278;2023-12-28T05:24:38;95949.50;;;3.15;82.23
6435;BME280;3250;42.694;23.278;2023-12-28T05:27:03;95942.94;;;3.11;82.96
6435;BME280;3250;42.694;23.278;2023-12-28T05:29:29;95941.16;;;3.12;82.73
6435;BME280;3250;42.694;23.278;2023-12-28T05:31:54;95947.72;;;3.16;82.51
6435;BME280;3250;42.694;23.278;2023-12-28T05:34:20;95937.75;;;3.11;82.95
6435;BME280;3250;42.694;23.278;2023-12-28T05:36:45;95947.47;;;3.19;82.83
6435;BME280;3250;42.694;23.278;2023-12-28T05:39:11;95957.31;;;3.15;82.97
6435;BME280;3250;42.694;23.278;2023-12-28T05:41:39;95953.75;;;3.07;83.28
6435;BME280;3250;42.694;23.278;2023-12-28T05:44:05;95938.44;;;2.94;84.32
6435;BME280;3250;42.694;23.278;2023-12-28T05:46:31;95955.78;;;3.22;83.76
6435;BME280;3250;42.694;23.278;2023-12-28T05:48:56;95964.03;;;3.27;83.54
6435;BME280;3250;42.694;23.278;2023-12-28T05:51:22;95968.66;;;3.24;83.04
6435;BME280;3250;42.694;23.278;2023-12-28T05:53:47;95957.88;;;3.28;83.83
6435;BME280;3250;42.694;23.278;2023-12-28T05:56:13;95965.09;;;3.34;83.52
6435;BME280;3250;42.694;23.278;2023-12-28T05:58:38;95968.78;;;3.32;83.07
6435;BME280;3250;42.694;23.278;2023-12-28T06:01:04;95964.53;;;3.31;83.00
6435;BME280;3250;42.694;23.278;2023-12-28T06:03:31;95975.38;;;3.36;82.53
6435;BME280;3250;42.694;23.278;2023-12-28T06:05:56;95968.28;;;3.28;82.79
6435;BME280;3250;42.694;23.278;2023-12-28T06:08:22;95978.13;;;3.25;82.09
6435;BME280;3250;42.694;23.278;2023-12-28T06:10:47;95973.44;;;3.38;82.30
6435;BME280;3250;42.694;23.278;2023-12-28T06:13:12;95955.25;;;3.28;82.07
6435;BME280;3250;42.694;23.278;2023-12-28T06:15:38;95974.25;;;3.38;82.48
6435;BME280;3250;42.694;23.278;2023-12-28T06:18:04;95974.56;;;3.35;81.81
6435;BME280;3250;42.694;23.278;2023-12-28T06:20:30;95976.19;;;3.36;81.69
6435;BME280;3250;42.694;23.278;2023-12-28T06:22:55;95974.81;;;3.42;81.78
6435;BME280;3250;42.694;23.278;2023-12-28T06:25:20;95949.06;;;3.29;81.88
6435;BME280;3250;42.694;23.278;2023-12-28T06:27:46;95979.75;;;3.45;81.74
6435;BME280;3250;42.694;23.278;2023-12-28T06:30:12;95976.72;;;3.50;82.57
6435;BME280;3250;42.694;23.278;2023-12-28T06:32:38;95981.22;;;3.57;82.48
6435;BME280;3250;42.694;23.278;2023-12-28T06:35:03;95980.13;;;3.60;82.40
6435;BME280;3250;42.694;23.278;2023-12-28T06:37:29;95963.94;;;3.56;82.13
6435;BME280;3250;42.694;23.278;2023-12-28T06:39:54;95984.88;;;3.74;81.57
6435;BME280;3250;42.694;23.278;2023-12-28T06:42:20;95987.75;;;3.80;82.35
6435;BME280;3250;42.694;23.278;2023-12-28T06:44:45;95981.53;;;3.91;82.07
6435;BME280;3250;42.694;23.278;2023-12-28T06:47:11;95975.75;;;4.34;81.92
6435;BME280;3250;42.694;23.278;2023-12-28T06:49:36;95996.13;;;5.29;79.33
6435;BME280;3250;42.694;23.278;2023-12-28T06:52:02;95993.44;;;6.00;76.12
6435;BME280;3250;42.694;23.278;2023-12-28T06:54:27;96001.22;;;5.92;75.03
6435;BME280;3250;42.694;23.278;2023-12-28T06:56:53;95979.63;;;6.16;74.17
6435;BME280;3250;42.694;23.278;2023-12-28T06:59:18;95994.38;;;6.59;73.12
6435;BME280;3250;42.694;23.278;2023-12-28T07:01:44;96000.78;;;7.55;71.67
6435;BME280;3250;42.694;23.278;2023-12-28T07:04:10;95997.28;;;8.11;68.57
6435;BME280;3250;42.694;23.278;2023-12-28T07:06:37;96010.53;;;9.12;65.41
6435;BME280;3250;42.694;23.278;2023-12-28T07:09:02;96014.91;;;9.51;62.09
6435;BME280;3250;42.694;23.278;2023-12-28T07:11:29;96003.19;;;9.53;61.53
6435;BME280;3250;42.694;23.278;2023-12-28T07:13:55;96003.44;;;9.43;62.06
6435;BME280;3250;42.694;23.278;2023-12-28T07:16:20;96007.84;;;9.89;60.74
6435;BME280;3250;42.694;23.278;2023-12-28T07:18:46;95990.47;;;9.65;61.40
6435;BME280;3250;42.694;23.278;2023-12-28T07:21:11;96013.69;;;9.99;60.30
6435;BME280;3250;42.694;23.278;2023-12-28T07:23:37;96009.66;;;10.26;60.50
6435;BME280;3250;42.694;23.278;2023-12-28T07:26:06;96008.88;;;10.69;58.94
6435;BME280;3250;42.694;23.278;2023-12-28T07:28:31;95982.59;;;10.17;59.07
6435;BME280;3250;42.694;23.278;2023-12-28T07:30:57;96009.72;;;10.03;59.45
6435;BME280;3250;42.694;23.278;2023-12-28T07:33:22;96009.41;;;9.37;61.96
6435;BME280;3250;42.694;23.278;2023-12-28T07:35:48;96013.78;;;9.68;62.41
6435;BME280;3250;42.694;23.278;2023-12-28T07:38:13;96019.50;;;10.61;59.94
6435;BME280;3250;42.694;23.278;2023-12-28T07:40:39;96008.72;;;11.64;56.76
6435;BME280;3250;42.694;23.278;2023-12-28T07:43:05;96005.59;;;12.93;52.03
6435;BME280;3250;42.694;23.278;2023-12-28T07:45:30;96011.56;;;14.02;49.24
6435;BME280;3250;42.694;23.278;2023-12-28T07:47:58;96009.44;;;14.83;46.41
6435;BME280;3250;42.694;23.278;2023-12-28T07:50:23;96010.22;;;14.97;45.64
6435;BME280;3250;42.694;23.278;2023-12-28T07:52:50;96008.31;;;14.53;45.47
6435;BME280;3250;42.694;23.278;2023-12-28T07:55:16;96015.66;;;14.44;46.02
6435;BME280;3250;42.694;23.278;2023-12-28T07:57:42;96018.81;;;14.92;45.54
6435;BME280;3250;42.694;23.278;2023-12-28T08:00:07;96017.31;;;15.61;43.77
6435;BME280;3250;42.694;23.278;2023-12-28T08:02:33;96012.00;;;16.67;41.74
6435;BME280;3250;42.694;23.278;2023-12-28T08:04:59;96012.78;;;17.40;40.17
6435;BME280;3250;42.694;23.278;2023-12-28T08:07:24;96007.63;;;18.28;38.11
6435;BME280;3250;42.694;23.278;2023-12-28T08:09:50;96003.72;;;18.77;36.47
6435;BME280;3250;42.694;23.278;2023-12-28T08:12:15;96001.34;;;19.04;36.82
6435;BME280;3250;42.694;23.278;2023-12-28T08:14:42;96000.06;;;19.47;34.63
6435;BME280;3250;42.694;23.278;2023-12-28T08:17:08;95998.44;;;19.57;34.22
6435;BME280;3250;42.694;23.278;2023-12-28T08:19:33;96000.78;;;19.82;34.14
6435;BME280;3250;42.694;23.278;2023-12-28T08:21:59;95996.78;;;20.13;34.31
6435;BME280;3250;42.694;23.278;2023-12-28T08:24:24;95988.84;;;19.73;34.88
6435;BME280;3250;42.694;23.278;2023-12-28T08:26:50;95986.50;;;19.77;34.88
6435;BME280;3250;42.694;23.278;2023-12-28T08:29:15;95991.06;;;20.38;34.36
6435;BME280;3250;42.694;23.278;2023-12-28T08:31:40;95993.19;;;20.24;34.50
6435;BME280;3250;42.694;23.278;2023-12-28T08:34:06;95999.41;;;19.40;35.75
6435;BME280;3250;42.694;23.278;2023-12-28T08:36:31;95991.41;;;19.40;35.65
6435;BME280;3250;42.694;23.278;2023-12-28T08:38:57;95990.00;;;19.37;35.65
6435;BME280;3250;42.694;23.278;2023-12-28T08:41:23;95990.03;;;18.51;36.30
6435;BME280;3250;42.694;23.278;2023-12-28T08:43:52;95990.13;;;17.19;39.37
6435;BME280;3250;42.694;23.278;2023-12-28T08:46:22;95986.81;;;17.06;39.99
6435;BME280;3250;42.694;23.278;2023-12-28T08:48:49;95984.53;;;16.73;40.31
6435;BME280;3250;42.694;23.278;2023-12-28T08:51:15;95953.06;;;15.77;43.11
6435;BME280;3250;42.694;23.278;2023-12-28T08:53:41;95970.91;;;15.70;44.04
6435;BME280;3250;42.694;23.278;2023-12-28T08:56:16;95966.25;;;15.59;43.30
6435;BME280;3250;42.694;23.278;2023-12-28T08:58:42;95961.53;;;15.29;42.40
6435;BME280;3250;42.694;23.278;2023-12-28T09:01:15;95951.53;;;14.87;44.05
6435;BME280;3250;42.694;23.278;2023-12-28T09:03:40;95962.06;;;14.03;45.44
6435;BME280;3250;42.694;23.278;2023-12-28T09:06:06;95969.63;;;13.66;46.81
6435;BME280;3250;42.694;23.278;2023-12-28T09:08:31;95961.22;;;12.82;48.52
6435;BME280;3250;42.694;23.278;2023-12-28T09:10:57;95952.22;;;13.24;48.14
6435;BME280;3250;42.694;23.278;2023-12-28T09:13:22;95936.34;;;13.17;48.93
6435;BME280;3250;42.694;23.278;2023-12-28T09:15:48;95947.88;;;12.97;49.75
6435;BME280;3250;42.694;23.278;2023-12-28T09:18:13;95938.00;;;12.71;50.02
6435;BME280;3250;42.694;23.278;2023-12-28T09:20:39;95938.38;;;11.92;51.94
6435;BME280;3250;42.694;23.278;2023-12-28T09:23:05;95935.44;;;12.43;51.67
6435;BME280;3250;42.694;23.278;2023-12-28T09:25:31;95932.41;;;13.07;51.06
6435;BME280;3250;42.694;23.278;2023-12-28T09:27:56;95928.47;;;13.44;49.33
6435;BME280;3250;42.694;23.278;2023-12-28T09:30:22;95912.63;;;13.57;48.20
6435;BME280;3250;42.694;23.278;2023-12-28T09:32:47;95920.97;;;13.74;47.60
6435;BME280;3250;42.694;23.278;2023-12-28T09:35:13;95922.16;;;13.58;46.95
6435;BME280;3250;42.694;23.278;2023-12-28T09:37:38;95902.41;;;13.67;47.12
6435;BME280;3250;42.694;23.278;2023-12-28T09:40:04;95906.69;;;13.68;46.94
6435;BME280;3250;42.694;23.278;2023-12-28T09:42:43;95896.88;;;14.02;47.59
6435;BME280;3250;42.694;23.278;2023-12-28T09:45:11;95895.91;;;13.89;47.51
6435;BME280;3250;42.694;23.278;2023-12-28T09:47:37;95891.41;;;13.77;46.93
6435;BME280;3250;42.694;23.278;2023-12-28T09:50:02;95888.97;;;13.29;48.26
6435;BME280;3250;42.694;23.278;2023-12-28T09:52:28;95894.28;;;13.55;49.63
6435;BME280;3250;42.694;23.278;2023-12-28T09:54:53;95886.94;;;13.51;48.51
6435;BME280;3250;42.694;23.278;2023-12-28T09:57:20;95883.69;;;13.36;49.47
6435;BME280;3250;42.694;23.278;2023-12-28T09:59:45;95873.13;;;13.29;50.41
6435;BME280;3250;42.694;23.278;2023-12-28T10:02:11;95869.06;;;13.40;50.13
6435;BME280;3250;42.694;23.278;2023-12-28T10:04:37;95867.81;;;13.36;50.26
6435;BME280;3250;42.694;23.278;2023-12-28T10:07:03;95829.75;;;12.97;49.98
6435;BME280;3250;42.694;23.278;2023-12-28T10:09:28;95860.44;;;13.11;50.63
6435;BME280;3250;42.694;23.278;2023-12-28T10:11:56;95850.53;;;13.13;50.26
6435;BME280;3250;42.694;23.278;2023-12-28T10:14:21;95860.88;;;13.15;50.54
6435;BME280;3250;42.694;23.278;2023-12-28T10:16:47;95833.78;;;12.87;50.78
6435;BME280;3250;42.694;23.278;2023-12-28T10:19:13;95840.06;;;12.79;51.77
6435;BME280;3250;42.694;23.278;2023-12-28T10:21:42;95840.88;;;12.86;51.67
6435;BME280;3250;42.694;23.278;2023-12-28T10:24:10;95825.59;;;12.62;51.67
6435;BME280;3250;42.694;23.278;2023-12-28T10:26:36;95827.00;;;12.64;52.50
6435;BME280;3250;42.694;23.278;2023-12-28T10:29:02;95816.59;;;12.50;52.65
6435;BME280;3250;42.694;23.278;2023-12-28T10:31:28;95806.41;;;12.33;53.17
6435;BME280;3250;42.694;23.278;2023-12-28T10:33:57;95806.81;;;12.37;54.10
6435;BME280;3250;42.694;23.278;2023-12-28T10:36:23;95801.75;;;12.35;53.76
6435;BME280;3250;42.694;23.278;2023-12-28T10:38:51;95799.69;;;12.31;54.00
6435;BME280;3250;42.694;23.278;2023-12-28T10:41:19;95793.22;;;12.40;54.84
6435;BME280;3250;42.694;23.278;2023-12-28T10:43:46;95775.53;;;12.34;54.63
6435;BME280;3250;42.694;23.278;2023-12-28T10:46:38;95782.63;;;12.33;53.05
6435;BME280;3250;42.694;23.278;2023-12-28T10:49:16;95758.19;;;12.12;54.01
6435;BME280;3250;42.694;23.278;2023-12-28T10:51:43;95773.53;;;11.95;54.36
6435;BME280;3250;42.694;23.278;2023-12-28T10:56:49;95755.16;;;11.73;54.90
6435;BME280;3250;42.694;23.278;2023-12-28T10:59:30;95769.66;;;11.84;55.38
6435;BME280;3250;42.694;23.278;2023-12-28T11:02:01;95768.44;;;11.87;55.05
6435;BME280;3250;42.694;23.278;2023-12-28T11:04:49;95757.06;;;11.86;55.30
6435;BME280;3250;42.694;23.278;2023-12-28T11:07:17;95729.44;;;11.76;55.19
6435;BME280;3250;42.694;23.278;2023-12-28T11:09:43;95739.50;;;12.06;55.10
6435;BME280;3250;42.694;23.278;2023-12-28T11:12:09;95726.28;;;12.00;54.67
6435;BME280;3250;42.694;23.278;2023-12-28T11:14:42;95717.13;;;11.96;54.81
6435;BME280;3250;42.694;23.278;2023-12-28T11:17:09;95734.22;;;12.00;55.25
6435;BME280;3250;42.694;23.278;2023-12-28T11:19:35;95736.81;;;11.93;55.49
6435;BME280;3250;42.694;23.278;2023-12-28T11:22:03;95730.56;;;12.01;55.79
6435;BME280;3250;42.694;23.278;2023-12-28T11:24:29;95715.94;;;12.05;56.40
6435;BME280;3250;42.694;23.278;2023-12-28T11:26:56;95701.47;;;11.88;55.51
6435;BME280;3250;42.694;23.278;2023-12-28T11:29:22;95685.84;;;11.86;55.63
6435;BME280;3250;42.694;23.278;2023-12-28T11:31:57;95708.44;;;12.08;55.91
6435;BME280;3250;42.694;23.278;2023-12-28T11:34:25;95707.66;;;12.15;55.27
6435;BME280;3250;42.694;23.278;2023-12-28T11:36:53;95703.81;;;12.24;55.68
6435;BME280;3250;42.694;23.278;2023-12-28T11:39:29;95691.41;;;12.18;55.43
6435;BME280;3250;42.694;23.278;2023-12-28T11:42:00;95690.81;;;12.16;54.99
6435;BME280;3250;42.694;23.278;2023-12-28T11:44:29;95683.47;;;12.11;55.23
6435;BME280;3250;42.694;23.278;2023-12-28T11:46:55;95682.88;;;12.09;55.44
6435;BME280;3250;42.694;23.278;2023-12-28T11:49:30;95690.19;;;12.20;55.52
6435;BME280;3250;42.694;23.278;2023-12-28T11:51:57;95678.44;;;12.29;55.39
6435;BME280;3250;42.694;23.278;2023-12-28T11:54:24;95677.84;;;12.40;55.99
6435;BME280;3250;42.694;23.278;2023-12-28T11:56:51;95673.19;;;12.42;55.05
6435;BME280;3250;42.694;23.278;2023-12-28T11:59:20;95672.31;;;12.22;55.66
6435;BME280;3250;42.694;23.278;2023-12-28T12:01:50;95670.31;;;12.37;55.31
6435;BME280;3250;42.694;23.278;2023-12-28T12:04:19;95676.41;;;12.31;55.47
6435;BME280;3250;42.694;23.278;2023-12-28T12:06:46;95672.16;;;12.43;55.19
6435;BME280;3250;42.694;23.278;2023-12-28T12:09:12;95674.59;;;12.52;54.51
6435;BME280;3250;42.694;23.278;2023-12-28T12:11:38;95665.25;;;12.56;54.41
6435;BME280;3250;42.694;23.278;2023-12-28T12:14:08;95651.84;;;12.64;53.71
6435;BME280;3250;42.694;23.278;2023-12-28T12:16:35;95653.28;;;12.66;54.11
6435;BME280;3250;42.694;23.278;2023-12-28T12:19:03;95644.13;;;12.69;54.78
6435;BME280;3250;42.694;23.278;2023-12-28T12:21:28;95644.53;;;12.72;53.84
6435;BME280;3250;42.694;23.278;2023-12-28T12:23:55;95652.47;;;12.79;53.89
6435;BME280;3250;42.694;23.278;2023-12-28T12:26:21;95659.56;;;12.85;53.37
6435;BME280;3250;42.694;23.278;2023-12-28T12:28:47;95656.53;;;12.88;53.25
6435;BME280;3250;42.694;23.278;2023-12-28T12:31:14;95661.19;;;12.73;54.12
6435;BME280;3250;42.694;23.278;2023-12-28T12:33:39;95656.72;;;12.67;53.83
6435;BME280;3250;42.694;23.278;2023-12-28T12:36:06;95659.16;;;12.75;53.67
6435;BME280;3250;42.694;23.278;2023-12-28T12:38:33;95661.63;;;12.70;54.07
6435;BME280;3250;42.694;23.278;2023-12-28T12:40:59;95646.97;;;12.54;53.90
6435;BME280;3250;42.694;23.278;2023-12-28T12:43:24;95658.75;;;12.65;54.34
6435;BME280;3250;42.694;23.278;2023-12-28T12:45:51;95654.72;;;12.62;54.63
6435;BME280;3250;42.694;23.278;2023-12-28T12:48:17;95652.66;;;12.64;54.57
6435;BME280;3250;42.694;23.278;2023-12-28T12:50:43;95640.28;;;12.52;54.57
6435;BME280;3250;42.694;23.278;2023-12-28T12:53:09;95658.13;;;12.56;54.56
6435;BME280;3250;42.694;23.278;2023-12-28T12:55:36;95645.94;;;12.55;54.50
6435;BME280;3250;42.694;23.278;2023-12-28T12:58:04;95648.59;;;12.48;54.64
6435;BME280;3250;42.694;23.278;2023-12-28T13:00:30;95634.59;;;12.41;54.70
6435;BME280;3250;42.694;23.278;2023-12-28T13:02:59;95635.78;;;12.45;54.48
6435;BME280;3250;42.694;23.278;2023-12-28T13:05:24;95636.00;;;12.51;54.16
6435;BME280;3250;42.694;23.278;2023-12-28T13:07:51;95631.94;;;12.48;54.51
6435;BME280;3250;42.694;23.278;2023-12-28T13:10:16;95621.38;;;12.41;54.67
6435;BME280;3250;42.694;23.278;2023-12-28T13:12:42;95624.81;;;12.55;54.47
6435;BME280;3250;42.694;23.278;2023-12-28T13:15:08;95621.38;;;12.68;53.84
6435;BME280;3250;42.694;23.278;2023-12-28T13:17:38;95631.31;;;12.66;53.94